sensor_id;sensor_type;location;lat;lon;timestamp;P1;durP1;ratioP1;P2;durP2;ratioP2
3971;SDS011;2000;47.572;14.202;2022-12-18T00:01:19;5.40;;;2.93;;
3971;SDS011;2000;47.572;14.202;2022-12-18T00:03:48;4.23;;;1.93;;
3971;SDS011;2000;47.572;14.202;2022-12-18T00:06:15;3.20;;;2.13;;
3971;SDS011;2000;47.572;14.202;2022-12-18T00:08:43;3.67;;;1.60;;
3971;SDS011;2000;47.572;14.202;2022-12-18T00:11:11;3.37;;;1.50;;
3971;SDS011;2000;47.572;14.202;2022-12-18T00:13:39;2.53;;;1.67;;
3971;SDS011;2000;47.572;14.202;2022-12-18T00:16:08;7.43;;;2.83;;
3971;SDS011;2000;47.572;14.202;2022-12-18T00:18:37;3.60;;;2.37;;
3971;SDS011;2000;47.572;14.202;2022-12-18T00:21:05;4.10;;;2.47;;
3971;SDS011;2000;47.572;14.202;2022-12-18T00:23:34;4.30;;;2.20;;
3971;SDS011;2000;47.572;14.202;2022-12-18T00:26:02;6.77;;;2.40;;
3971;SDS011;2000;47.572;14.202;2022-12-18T00:28:30;4.63;;;2.50;;
3971;SDS011;2000;47.572;14.202;2022-12-18T00:33:27;3.07;;;1.70;;
3971;SDS011;2000;47.572;14.202;2022-12-18T00:35:54;2.20;;;1.20;;
3971;SDS011;2000;47.572;14.202;2022-12-18T00:38:20;4.40;;;1.60;;
3971;SDS011;2000;47.572;14.202;2022-12-18T00:40:47;2.43;;;1.33;;
3971;SDS011;2000;47.572;14.202;2022-12-18T00:43:14;3.67;;;2.03;;
3971;SDS011;2000;47.572;14.202;2022-12-18T00:45:40;2.30;;;1.83;;
3971;SDS011;2000;47.572;14.202;2022-12-18T00:48:07;2.30;;;2.10;;
3971;SDS011;2000;47.572;14.202;2022-12-18T00:50:34;5.27;;;1.53;;
3971;SDS011;2000;47.572;14.202;2022-12-18T00:53:00;3.30;;;2.03;;
3971;SDS011;2000;47.572;14.202;2022-12-18T00:55:27;1.97;;;1.60;;
3971;SDS011;2000;47.572;14.202;2022-12-18T00:57:54;2.87;;;1.70;;
3971;SDS011;2000;47.572;14.202;2022-12-18T01:00:21;4.53;;;2.17;;
3971;SDS011;2000;47.572;14.202;2022-12-18T01:02:48;2.20;;;2.00;;
3971;SDS011;2000;47.572;14.202;2022-12-18T01:05:16;3.33;;;1.93;;
3971;SDS011;2000;47.572;14.202;2022-12-18T01:07:42;6.70;;;2.30;;
3971;SDS011;2000;47.572;14.202;2022-12-18T01:10:09;3.17;;;1.80;;
3971;SDS011;2000;47.572;14.202;2022-12-18T01:12:38;5.73;;;2.50;;
3971;SDS011;2000;47.572;14.202;2022-12-18T01:15:05;3.97;;;1.80;;
3971;SDS011;2000;47.572;14.202;2022-12-18T01:17:32;1.87;;;1.20;;
3971;SDS011;2000;47.572;14.202;2022-12-18T01:20:00;5.43;;;1.60;;
3971;SDS011;2000;47.572;14.202;2022-12-18T01:22:27;2.67;;;1.60;;
3971;SDS011;2000;47.572;14.202;2022-12-18T01:24:53;1.80;;;1.30;;
3971;SDS011;2000;47.572;14.202;2022-12-18T01:27:20;5.37;;;2.07;;
3971;SDS011;2000;47.572;14.202;2022-12-18T01:29:47;2.40;;;2.20;;
3971;SDS011;2000;47.572;14.202;2022-12-18T01:32:13;4.73;;;2.47;;
3971;SDS011;2000;47.572;14.202;2022-12-18T01:34:40;7.20;;;3.83;;
3971;SDS011;2000;47.572;14.202;2022-12-18T01:37:07;6.97;;;2.47;;
3971;SDS011;2000;47.572;14.202;2022-12-18T01:39:34;5.53;;;2.43;;
3971;SDS011;2000;47.572;14.202;2022-12-18T01:42:02;8.20;;;2.83;;
3971;SDS011;2000;47.572;14.202;2022-12-18T01:47:28;8.30;;;2.43;;
3971;SDS011;2000;47.572;14.202;2022-12-18T01:50:04;3.33;;;1.90;;
3971;SDS011;2000;47.572;14.202;2022-12-18T01:52:35;6.67;;;2.67;;
3971;SDS011;2000;47.572;14.202;2022-12-18T01:55:03;3.57;;;3.20;;
3971;SDS011;2000;47.572;14.202;2022-12-18T01:57:31;7.53;;;2.97;;
3971;SDS011;2000;47.572;14.202;2022-12-18T02:00:04;6.63;;;3.23;;
3971;SDS011;2000;47.572;14.202;2022-12-18T02:02:40;6.67;;;3.40;;
3971;SDS011;2000;47.572;14.202;2022-12-18T02:05:09;7.87;;;3.30;;
3971;SDS011;2000;47.572;14.202;2022-12-18T02:08:12;6.77;;;3.50;;
3971;SDS011;2000;47.572;14.202;2022-12-18T02:11:05;5.23;;;2.80;;
3971;SDS011;2000;47.572;14.202;2022-12-18T02:16:19;4.70;;;2.20;;
3971;SDS011;2000;47.572;14.202;2022-12-18T02:18:53;3.67;;;1.90;;
3971;SDS011;2000;47.572;14.202;2022-12-18T02:26:53;4.07;;;2.17;;
3971;SDS011;2000;47.572;14.202;2022-12-18T02:29:26;3.43;;;1.90;;
3971;SDS011;2000;47.572;14.202;2022-12-18T02:32:00;5.93;;;1.60;;
3971;SDS011;2000;47.572;14.202;2022-12-18T02:34:30;3.07;;;1.60;;
3971;SDS011;2000;47.572;14.202;2022-12-18T02:36:58;4.07;;;1.70;;
3971;SDS011;2000;47.572;14.202;2022-12-18T02:39:26;2.13;;;1.93;;
3971;SDS011;2000;47.572;14.202;2022-12-18T02:41:55;4.43;;;2.30;;
3971;SDS011;2000;47.572;14.202;2022-12-18T02:44:21;8.00;;;2.73;;
3971;SDS011;2000;47.572;14.202;2022-12-18T02:46:51;3.77;;;2.60;;
3971;SDS011;2000;47.572;14.202;2022-12-18T02:49:35;7.63;;;2.50;;
3971;SDS011;2000;47.572;14.202;2022-12-18T02:55:12;5.70;;;2.70;;
3971;SDS011;2000;47.572;14.202;2022-12-18T02:57:41;7.90;;;2.53;;
3971;SDS011;2000;47.572;14.202;2022-12-18T03:00:14;4.53;;;2.40;;
3971;SDS011;2000;47.572;14.202;2022-12-18T03:02:45;3.40;;;1.70;;
3971;SDS011;2000;47.572;14.202;2022-12-18T03:05:27;2.10;;;1.80;;
3971;SDS011;2000;47.572;14.202;2022-12-18T03:07:57;2.63;;;2.40;;
3971;SDS011;2000;47.572;14.202;2022-12-18T03:10:28;5.83;;;2.47;;
3971;SDS011;2000;47.572;14.202;2022-12-18T03:13:18;3.80;;;2.33;;
3971;SDS011;2000;47.572;14.202;2022-12-18T03:15:49;5.80;;;3.40;;
3971;SDS011;2000;47.572;14.202;2022-12-18T03:18:18;2.57;;;1.90;;
3971;SDS011;2000;47.572;14.202;2022-12-18T03:20:49;6.40;;;2.93;;
3971;SDS011;2000;47.572;14.202;2022-12-18T03:23:18;5.30;;;2.40;;
3971;SDS011;2000;47.572;14.202;2022-12-18T03:25:52;7.10;;;2.17;;
3971;SDS011;2000;47.572;14.202;2022-12-18T03:28:22;7.53;;;2.47;;
3971;SDS011;2000;47.572;14.202;2022-12-18T03:30:51;3.60;;;2.23;;
3971;SDS011;2000;47.572;14.202;2022-12-18T03:33:23;6.70;;;2.80;;
3971;SDS011;2000;47.572;14.202;2022-12-18T03:35:52;6.40;;;3.50;;
3971;SDS011;2000;47.572;14.202;2022-12-18T03:38:19;3.17;;;2.00;;
3971;SDS011;2000;47.572;14.202;2022-12-18T03:45:58;7.63;;;2.13;;
3971;SDS011;2000;47.572;14.202;2022-12-18T03:48:41;4.47;;;2.40;;
3971;SDS011;2000;47.572;14.202;2022-12-18T03:51:37;1.87;;;1.77;;
3971;SDS011;2000;47.572;14.202;2022-12-18T03:54:06;3.40;;;2.50;;
3971;SDS011;2000;47.572;14.202;2022-12-18T03:56:36;5.13;;;2.47;;
3971;SDS011;2000;47.572;14.202;2022-12-18T03:59:05;3.53;;;2.40;;
3971;SDS011;2000;47.572;14.202;2022-12-18T04:01:37;6.77;;;2.60;;
3971;SDS011;2000;47.572;14.202;2022-12-18T04:04:06;6.67;;;2.80;;
3971;SDS011;2000;47.572;14.202;2022-12-18T04:06:35;2.63;;;1.40;;
3971;SDS011;2000;47.572;14.202;2022-12-18T04:09:02;3.93;;;2.13;;
3971;SDS011;2000;47.572;14.202;2022-12-18T04:11:29;5.80;;;2.20;;
3971;SDS011;2000;47.572;14.202;2022-12-18T04:13:56;2.70;;;2.00;;
3971;SDS011;2000;47.572;14.202;2022-12-18T04:16:24;4.03;;;1.57;;
3971;SDS011;2000;47.572;14.202;2022-12-18T04:18:52;4.60;;;1.90;;
3971;SDS011;2000;47.572;14.202;2022-12-18T04:21:19;4.77;;;1.93;;
3971;SDS011;2000;47.572;14.202;2022-12-18T04:23:46;5.37;;;2.07;;
3971;SDS011;2000;47.572;14.202;2022-12-18T04:26:13;5.60;;;2.30;;
3971;SDS011;2000;47.572;14.202;2022-12-18T04:28:40;4.60;;;2.20;;
3971;SDS011;2000;47.572;14.202;2022-12-18T04:31:06;4.53;;;2.30;;
3971;SDS011;2000;47.572;14.202;2022-12-18T04:33:33;1.83;;;1.43;;
3971;SDS011;2000;47.572;14.202;2022-12-18T04:36:00;3.30;;;1.97;;
3971;SDS011;2000;47.572;14.202;2022-12-18T04:38:27;3.03;;;1.73;;
3971;SDS011;2000;47.572;14.202;2022-12-18T04:40:53;5.17;;;2.40;;
3971;SDS011;2000;47.572;14.202;2022-12-18T04:43:20;2.57;;;1.90;;
3971;SDS011;2000;47.572;14.202;2022-12-18T04:45:47;4.30;;;1.90;;
3971;SDS011;2000;47.572;14.202;2022-12-18T04:48:14;2.90;;;1.60;;
3971;SDS011;2000;47.572;14.202;2022-12-18T04:50:40;3.60;;;2.67;;
3971;SDS011;2000;47.572;14.202;2022-12-18T04:53:07;4.93;;;1.93;;
3971;SDS011;2000;47.572;14.202;2022-12-18T04:55:35;3.73;;;1.27;;
3971;SDS011;2000;47.572;14.202;2022-12-18T04:58:01;2.93;;;1.83;;
3971;SDS011;2000;47.572;14.202;2022-12-18T05:00:28;2.77;;;2.40;;
3971;SDS011;2000;47.572;14.202;2022-12-18T05:02:55;4.80;;;2.47;;
3971;SDS011;2000;47.572;14.202;2022-12-18T05:05:22;7.73;;;2.60;;
3971;SDS011;2000;47.572;14.202;2022-12-18T05:07:48;3.33;;;1.90;;
3971;SDS011;2000;47.572;14.202;2022-12-18T05:10:15;3.80;;;2.40;;
3971;SDS011;2000;47.572;14.202;2022-12-18T05:12:42;5.30;;;2.10;;
3971;SDS011;2000;47.572;14.202;2022-12-18T05:15:30;1.90;;;1.60;;
3971;SDS011;2000;47.572;14.202;2022-12-18T05:17:58;5.57;;;2.03;;
3971;SDS011;2000;47.572;14.202;2022-12-18T05:20:25;4.03;;;1.57;;
3971;SDS011;2000;47.572;14.202;2022-12-18T05:22:53;3.00;;;2.13;;
3971;SDS011;2000;47.572;14.202;2022-12-18T05:25:20;6.20;;;2.60;;
3971;SDS011;2000;47.572;14.202;2022-12-18T05:27:47;5.40;;;3.20;;
3971;SDS011;2000;47.572;14.202;2022-12-18T05:30:14;5.53;;;2.67;;
3971;SDS011;2000;47.572;14.202;2022-12-18T05:32:42;4.40;;;1.93;;
3971;SDS011;2000;47.572;14.202;2022-12-18T05:35:10;5.73;;;3.07;;
3971;SDS011;2000;47.572;14.202;2022-12-18T05:37:37;6.13;;;3.83;;
3971;SDS011;2000;47.572;14.202;2022-12-18T05:40:08;3.30;;;2.33;;
3971;SDS011;2000;47.572;14.202;2022-12-18T05:42:36;4.70;;;3.20;;
3971;SDS011;2000;47.572;14.202;2022-12-18T05:45:03;3.90;;;2.60;;
3971;SDS011;2000;47.572;14.202;2022-12-18T05:47:30;10.43;;;2.90;;
3971;SDS011;2000;47.572;14.202;2022-12-18T05:49:56;5.30;;;3.17;;
3971;SDS011;2000;47.572;14.202;2022-12-18T05:52:23;7.23;;;3.00;;
3971;SDS011;2000;47.572;14.202;2022-12-18T05:54:50;3.03;;;1.73;;
3971;SDS011;2000;47.572;14.202;2022-12-18T05:57:17;3.87;;;2.20;;
3971;SDS011;2000;47.572;14.202;2022-12-18T05:59:43;3.13;;;2.70;;
3971;SDS011;2000;47.572;14.202;2022-12-18T06:02:10;2.53;;;2.23;;
3971;SDS011;2000;47.572;14.202;2022-12-18T06:04:37;7.77;;;3.87;;
3971;SDS011;2000;47.572;14.202;2022-12-18T06:07:03;5.80;;;3.13;;
3971;SDS011;2000;47.572;14.202;2022-12-18T06:09:30;5.80;;;2.70;;
3971;SDS011;2000;47.572;14.202;2022-12-18T06:11:57;6.10;;;1.90;;
3971;SDS011;2000;47.572;14.202;2022-12-18T06:14:23;3.30;;;1.67;;
3971;SDS011;2000;47.572;14.202;2022-12-18T06:16:50;4.13;;;2.60;;
3971;SDS011;2000;47.572;14.202;2022-12-18T06:19:18;4.70;;;2.73;;
3971;SDS011;2000;47.572;14.202;2022-12-18T06:21:45;4.90;;;2.33;;
3971;SDS011;2000;47.572;14.202;2022-12-18T06:24:11;4.43;;;2.73;;
3971;SDS011;2000;47.572;14.202;2022-12-18T06:26:38;7.00;;;3.50;;
3971;SDS011;2000;47.572;14.202;2022-12-18T06:29:05;5.23;;;3.27;;
3971;SDS011;2000;47.572;14.202;2022-12-18T06:31:32;5.80;;;3.00;;
3971;SDS011;2000;47.572;14.202;2022-12-18T06:34:01;6.70;;;3.10;;
3971;SDS011;2000;47.572;14.202;2022-12-18T06:36:29;7.50;;;2.87;;
3971;SDS011;2000;47.572;14.202;2022-12-18T06:38:56;7.77;;;3.30;;
3971;SDS011;2000;47.572;14.202;2022-12-18T06:41:23;9.50;;;4.20;;
3971;SDS011;2000;47.572;14.202;2022-12-18T06:43:50;7.30;;;4.40;;
3971;SDS011;2000;47.572;14.202;2022-12-18T06:46:23;19.73;;;5.67;;
3971;SDS011;2000;47.572;14.202;2022-12-18T06:48:50;17.30;;;7.27;;
3971;SDS011;2000;47.572;14.202;2022-12-18T06:51:17;12.97;;;6.33;;
3971;SDS011;2000;47.572;14.202;2022-12-18T06:53:45;13.93;;;6.67;;
3971;SDS011;2000;47.572;14.202;2022-12-18T06:56:12;16.40;;;6.53;;
3971;SDS011;2000;47.572;14.202;2022-12-18T06:58:38;15.90;;;6.73;;
3971;SDS011;2000;47.572;14.202;2022-12-18T07:01:06;10.33;;;4.20;;
3971;SDS011;2000;47.572;14.202;2022-12-18T07:03:37;10.00;;;4.03;;
3971;SDS011;2000;47.572;14.202;2022-12-18T07:06:05;5.57;;;3.57;;
3971;SDS011;2000;47.572;14.202;2022-12-18T07:08:32;7.63;;;4.80;;
3971;SDS011;2000;47.572;14.202;2022-12-18T07:11:02;11.90;;;5.00;;
3971;SDS011;2000;47.572;14.202;2022-12-18T07:13:30;11.93;;;5.70;;
3971;SDS011;2000;47.572;14.202;2022-12-18T07:16:03;8.40;;;2.93;;
3971;SDS011;2000;47.572;14.202;2022-12-18T07:18:38;10.47;;;5.47;;
3971;SDS011;2000;47.572;14.202;2022-12-18T07:21:05;11.00;;;5.17;;
3971;SDS011;2000;47.572;14.202;2022-12-18T07:23:33;7.73;;;4.40;;
3971;SDS011;2000;47.572;14.202;2022-12-18T07:26:08;21.50;;;5.20;;
3971;SDS011;2000;47.572;14.202;2022-12-18T07:28:38;16.03;;;6.17;;
3971;SDS011;2000;47.572;14.202;2022-12-18T07:31:07;14.00;;;7.37;;
3971;SDS011;2000;47.572;14.202;2022-12-18T07:33:38;11.37;;;5.90;;
3971;SDS011;2000;47.572;14.202;2022-12-18T07:36:06;12.23;;;5.43;;
3971;SDS011;2000;47.572;14.202;2022-12-18T07:38:34;8.50;;;4.73;;
3971;SDS011;2000;47.572;14.202;2022-12-18T07:41:02;7.13;;;3.90;;
3971;SDS011;2000;47.572;14.202;2022-12-18T07:43:32;15.73;;;5.00;;
3971;SDS011;2000;47.572;14.202;2022-12-18T07:45:59;3.60;;;2.70;;
3971;SDS011;2000;47.572;14.202;2022-12-18T07:48:27;4.23;;;3.17;;
3971;SDS011;2000;47.572;14.202;2022-12-18T07:50:57;5.17;;;3.37;;
3971;SDS011;2000;47.572;14.202;2022-12-18T07:53:27;4.37;;;3.50;;
3971;SDS011;2000;47.572;14.202;2022-12-18T07:55:57;4.77;;;3.47;;
3971;SDS011;2000;47.572;14.202;2022-12-18T07:58:44;11.53;;;5.63;;
3971;SDS011;2000;47.572;14.202;2022-12-18T08:01:13;7.77;;;4.87;;
3971;SDS011;2000;47.572;14.202;2022-12-18T08:03:40;9.17;;;6.37;;
3971;SDS011;2000;47.572;14.202;2022-12-18T08:06:09;9.30;;;5.87;;
3971;SDS011;2000;47.572;14.202;2022-12-18T08:08:36;12.83;;;7.30;;
3971;SDS011;2000;47.572;14.202;2022-12-18T08:11:03;9.90;;;6.50;;
3971;SDS011;2000;47.572;14.202;2022-12-18T08:13:29;13.47;;;7.33;;
3971;SDS011;2000;47.572;14.202;2022-12-18T08:15:57;11.97;;;7.53;;
3971;SDS011;2000;47.572;14.202;2022-12-18T08:18:24;15.13;;;9.33;;
3971;SDS011;2000;47.572;14.202;2022-12-18T08:20:51;24.50;;;13.40;;
3971;SDS011;2000;47.572;14.202;2022-12-18T08:23:18;30.33;;;14.43;;
3971;SDS011;2000;47.572;14.202;2022-12-18T08:25:45;22.70;;;12.50;;
3971;SDS011;2000;47.572;14.202;2022-12-18T08:28:12;33.17;;;16.23;;
3971;SDS011;2000;47.572;14.202;2022-12-18T08:30:39;32.33;;;14.80;;
3971;SDS011;2000;47.572;14.202;2022-12-18T08:33:06;26.93;;;13.60;;
3971;SDS011;2000;47.572;14.202;2022-12-18T08:35:36;23.80;;;13.07;;
3971;SDS011;2000;47.572;14.202;2022-12-18T08:38:10;19.63;;;10.43;;
3971;SDS011;2000;47.572;14.202;2022-12-18T08:40:37;18.23;;;9.10;;
3971;SDS011;2000;47.572;14.202;2022-12-18T08:43:04;14.80;;;7.30;;
3971;SDS011;2000;47.572;14.202;2022-12-18T08:45:50;16.07;;;8.70;;
3971;SDS011;2000;47.572;14.202;2022-12-18T08:48:16;18.73;;;9.43;;
3971;SDS011;2000;47.572;14.202;2022-12-18T08:50:56;14.20;;;7.60;;
3971;SDS011;2000;47.572;14.202;2022-12-18T08:53:24;14.10;;;6.80;;
3971;SDS011;2000;47.572;14.202;2022-12-18T08:55:51;17.27;;;9.27;;
3971;SDS011;2000;47.572;14.202;2022-12-18T08:58:18;11.90;;;6.50;;
3971;SDS011;2000;47.572;14.202;2022-12-18T09:00:45;15.87;;;7.33;;
3971;SDS011;2000;47.572;14.202;2022-12-18T09:03:13;12.10;;;6.60;;
3971;SDS011;2000;47.572;14.202;2022-12-18T09:05:40;12.80;;;8.00;;
3971;SDS011;2000;47.572;14.202;2022-12-18T09:08:07;12.67;;;7.40;;
3971;SDS011;2000;47.572;14.202;2022-12-18T09:10:40;19.90;;;8.73;;
3971;SDS011;2000;47.572;14.202;2022-12-18T09:13:09;26.10;;;10.10;;
3971;SDS011;2000;47.572;14.202;2022-12-18T09:15:43;16.63;;;8.23;;
3971;SDS011;2000;47.572;14.202;2022-12-18T09:18:20;12.80;;;7.83;;
3971;SDS011;2000;47.572;14.202;2022-12-18T09:20:47;18.43;;;8.73;;
3971;SDS011;2000;47.572;14.202;2022-12-18T09:23:14;7.93;;;5.00;;
3971;SDS011;2000;47.572;14.202;2022-12-18T09:25:41;10.83;;;6.00;;
3971;SDS011;2000;47.572;14.202;2022-12-18T09:28:12;10.80;;;5.83;;
3971;SDS011;2000;47.572;14.202;2022-12-18T09:30:49;13.37;;;6.97;;
3971;SDS011;2000;47.572;14.202;2022-12-18T09:33:16;13.30;;;6.80;;
3971;SDS011;2000;47.572;14.202;2022-12-18T09:35:44;15.40;;;6.83;;
3971;SDS011;2000;47.572;14.202;2022-12-18T09:38:12;16.07;;;6.50;;
3971;SDS011;2000;47.572;14.202;2022-12-18T09:40:47;14.20;;;4.73;;
3971;SDS011;2000;47.572;14.202;2022-12-18T09:43:24;14.20;;;5.80;;
3971;SDS011;2000;47.572;14.202;2022-12-18T09:45:56;11.37;;;6.63;;
3971;SDS011;2000;47.572;14.202;2022-12-18T09:48:29;9.03;;;5.60;;
3971;SDS011;2000;47.572;14.202;2022-12-18T09:50:59;10.53;;;4.77;;
3971;SDS011;2000;47.572;14.202;2022-12-18T09:53:39;12.50;;;5.07;;
3971;SDS011;2000;47.572;14.202;2022-12-18T09:56:06;9.37;;;5.40;;
3971;SDS011;2000;47.572;14.202;2022-12-18T09:58:47;13.07;;;6.60;;
3971;SDS011;2000;47.572;14.202;2022-12-18T10:01:18;8.30;;;4.40;;
3971;SDS011;2000;47.572;14.202;2022-12-18T10:03:49;10.03;;;4.07;;
3971;SDS011;2000;47.572;14.202;2022-12-18T10:06:32;5.77;;;3.90;;
3971;SDS011;2000;47.572;14.202;2022-12-18T10:09:06;13.07;;;7.90;;
3971;SDS011;2000;47.572;14.202;2022-12-18T10:11:45;4.43;;;3.27;;
3971;SDS011;2000;47.572;14.202;2022-12-18T10:14:23;8.37;;;4.60;;
3971;SDS011;2000;47.572;14.202;2022-12-18T10:16:57;7.03;;;3.40;;
3971;SDS011;2000;47.572;14.202;2022-12-18T10:19:39;5.73;;;4.13;;
3971;SDS011;2000;47.572;14.202;2022-12-18T10:28:13;6.40;;;3.47;;
3971;SDS011;2000;47.572;14.202;2022-12-18T10:30:41;7.37;;;3.83;;
3971;SDS011;2000;47.572;14.202;2022-12-18T10:33:11;4.00;;;2.90;;
3971;SDS011;2000;47.572;14.202;2022-12-18T10:35:54;3.80;;;2.97;;
3971;SDS011;2000;47.572;14.202;2022-12-18T10:38:22;8.33;;;3.93;;
3971;SDS011;2000;47.572;14.202;2022-12-18T10:43:47;5.23;;;3.73;;
3971;SDS011;2000;47.572;14.202;2022-12-18T10:46:15;6.53;;;4.33;;
3971;SDS011;2000;47.572;14.202;2022-12-18T10:51:47;7.67;;;4.27;;
3971;SDS011;2000;47.572;14.202;2022-12-18T10:54:17;12.17;;;5.87;;
3971;SDS011;2000;47.572;14.202;2022-12-18T10:56:45;7.80;;;4.80;;
3971;SDS011;2000;47.572;14.202;2022-12-18T10:59:16;7.93;;;4.60;;
3971;SDS011;2000;47.572;14.202;2022-12-18T11:04:25;6.07;;;3.70;;
3971;SDS011;2000;47.572;14.202;2022-12-18T11:09:29;9.50;;;4.00;;
3971;SDS011;2000;47.572;14.202;2022-12-18T11:11:59;9.13;;;3.93;;
3971;SDS011;2000;47.572;14.202;2022-12-18T11:17:32;7.87;;;4.27;;
3971;SDS011;2000;47.572;14.202;2022-12-18T11:20:02;6.97;;;4.10;;
3971;SDS011;2000;47.572;14.202;2022-12-18T11:22:32;13.40;;;5.60;;
3971;SDS011;2000;47.572;14.202;2022-12-18T11:27:56;9.77;;;4.67;;
3971;SDS011;2000;47.572;14.202;2022-12-18T11:30:25;9.27;;;4.60;;
3971;SDS011;2000;47.572;14.202;2022-12-18T11:33:05;7.40;;;3.60;;
3971;SDS011;2000;47.572;14.202;2022-12-18T11:35:50;6.57;;;4.67;;
3971;SDS011;2000;47.572;14.202;2022-12-18T11:41:00;5.33;;;3.40;;
3971;SDS011;2000;47.572;14.202;2022-12-18T11:43:48;8.50;;;5.20;;
3971;SDS011;2000;47.572;14.202;2022-12-18T11:46:36;6.30;;;4.70;;
3971;SDS011;2000;47.572;14.202;2022-12-18T11:54:37;6.00;;;3.87;;
3971;SDS011;2000;47.572;14.202;2022-12-18T12:08:08;8.67;;;4.83;;
3971;SDS011;2000;47.572;14.202;2022-12-18T12:21:33;8.47;;;3.83;;
3971;SDS011;2000;47.572;14.202;2022-12-18T12:29:25;6.60;;;3.30;;
3971;SDS011;2000;47.572;14.202;2022-12-18T12:32:46;6.90;;;4.53;;
3971;SDS011;2000;47.572;14.202;2022-12-18T12:40:31;8.83;;;4.23;;
3971;SDS011;2000;47.572;14.202;2022-12-18T12:43:29;5.00;;;3.67;;
3971;SDS011;2000;47.572;14.202;2022-12-18T12:45:59;5.63;;;3.63;;
3971;SDS011;2000;47.572;14.202;2022-12-18T12:48:43;5.70;;;3.83;;
3971;SDS011;2000;47.572;14.202;2022-12-18T12:51:17;8.13;;;5.03;;
3971;SDS011;2000;47.572;14.202;2022-12-18T12:53:47;6.77;;;4.13;;
3971;SDS011;2000;47.572;14.202;2022-12-18T12:56:16;8.13;;;4.00;;
3971;SDS011;2000;47.572;14.202;2022-12-18T13:01:27;11.20;;;6.93;;
3971;SDS011;2000;47.572;14.202;2022-12-18T13:07:23;3.90;;;2.40;;
3971;SDS011;2000;47.572;14.202;2022-12-18T13:12:56;6.37;;;3.23;;
3971;SDS011;2000;47.572;14.202;2022-12-18T13:18:19;9.03;;;3.67;;
3971;SDS011;2000;47.572;14.202;2022-12-18T13:23:27;7.73;;;4.43;;
3971;SDS011;2000;47.572;14.202;2022-12-18T13:31:57;10.90;;;5.00;;
3971;SDS011;2000;47.572;14.202;2022-12-18T13:36:53;8.03;;;4.17;;
3971;SDS011;2000;47.572;14.202;2022-12-18T13:39:23;8.00;;;3.93;;
3971;SDS011;2000;47.572;14.202;2022-12-18T13:44:32;5.00;;;3.20;;
3971;SDS011;2000;47.572;14.202;2022-12-18T13:47:24;7.73;;;4.10;;
3971;SDS011;2000;47.572;14.202;2022-12-18T13:49:57;4.93;;;3.53;;
3971;SDS011;2000;47.572;14.202;2022-12-18T13:52:26;10.87;;;4.70;;
3971;SDS011;2000;47.572;14.202;2022-12-18T13:54:55;10.90;;;5.20;;
3971;SDS011;2000;47.572;14.202;2022-12-18T13:57:45;7.17;;;4.23;;
3971;SDS011;2000;47.572;14.202;2022-12-18T14:02:55;15.17;;;6.23;;
3971;SDS011;2000;47.572;14.202;2022-12-18T14:05:24;20.13;;;7.23;;
3971;SDS011;2000;47.572;14.202;2022-12-18T14:07:52;15.40;;;6.77;;
3971;SDS011;2000;47.572;14.202;2022-12-18T14:10:21;16.83;;;6.10;;
3971;SDS011;2000;47.572;14.202;2022-12-18T14:13:08;40.17;;;19.97;;
3971;SDS011;2000;47.572;14.202;2022-12-18T14:15:44;26.80;;;12.63;;
3971;SDS011;2000;47.572;14.202;2022-12-18T14:20:52;24.27;;;9.00;;
3971;SDS011;2000;47.572;14.202;2022-12-18T14:26:02;16.37;;;7.20;;
3971;SDS011;2000;47.572;14.202;2022-12-18T14:28:31;21.27;;;8.80;;
3971;SDS011;2000;47.572;14.202;2022-12-18T14:30:58;10.97;;;6.07;;
3971;SDS011;2000;47.572;14.202;2022-12-18T14:33:26;17.53;;;5.93;;
3971;SDS011;2000;47.572;14.202;2022-12-18T14:38:37;16.33;;;6.13;;
3971;SDS011;2000;47.572;14.202;2022-12-18T14:41:09;78.83;;;31.30;;
3971;SDS011;2000;47.572;14.202;2022-12-18T14:43:38;170.43;;;59.30;;
3971;SDS011;2000;47.572;14.202;2022-12-18T14:49:17;45.23;;;19.90;;
3971;SDS011;2000;47.572;14.202;2022-12-18T14:51:53;32.23;;;12.80;;
3971;SDS011;2000;47.572;14.202;2022-12-18T14:54:23;22.03;;;9.57;;
3971;SDS011;2000;47.572;14.202;2022-12-18T14:57:00;19.40;;;7.93;;
3971;SDS011;2000;47.572;14.202;2022-12-18T14:59:28;22.97;;;10.30;;
3971;SDS011;2000;47.572;14.202;2022-12-18T15:01:57;25.90;;;13.17;;
3971;SDS011;2000;47.572;14.202;2022-12-18T15:04:45;27.13;;;12.57;;
3971;SDS011;2000;47.572;14.202;2022-12-18T15:07:14;27.97;;;11.93;;
3971;SDS011;2000;47.572;14.202;2022-12-18T15:12:34;23.73;;;10.27;;
3971;SDS011;2000;47.572;14.202;2022-12-18T15:20:39;75.83;;;29.10;;
3971;SDS011;2000;47.572;14.202;2022-12-18T15:25:57;51.40;;;20.17;;
3971;SDS011;2000;47.572;14.202;2022-12-18T15:28:31;37.50;;;16.20;;
3971;SDS011;2000;47.572;14.202;2022-12-18T15:33:30;54.63;;;25.00;;
3971;SDS011;2000;47.572;14.202;2022-12-18T15:35:59;44.97;;;20.30;;
3971;SDS011;2000;47.572;14.202;2022-12-18T15:38:27;45.03;;;19.40;;
3971;SDS011;2000;47.572;14.202;2022-12-18T15:40:54;30.10;;;15.67;;
3971;SDS011;2000;47.572;14.202;2022-12-18T15:43:21;29.70;;;12.90;;
3971;SDS011;2000;47.572;14.202;2022-12-18T15:48:33;18.63;;;9.20;;
3971;SDS011;2000;47.572;14.202;2022-12-18T15:51:02;20.77;;;10.47;;
3971;SDS011;2000;47.572;14.202;2022-12-18T15:53:30;21.97;;;9.47;;
3971;SDS011;2000;47.572;14.202;2022-12-18T15:55:58;15.47;;;8.60;;
3971;SDS011;2000;47.572;14.202;2022-12-18T15:58:43;16.10;;;9.00;;
3971;SDS011;2000;47.572;14.202;2022-12-18T16:01:10;14.80;;;7.33;;
3971;SDS011;2000;47.572;14.202;2022-12-18T16:03:38;16.77;;;7.63;;
3971;SDS011;2000;47.572;14.202;2022-12-18T16:06:05;8.63;;;4.60;;
3971;SDS011;2000;47.572;14.202;2022-12-18T16:08:32;10.67;;;5.47;;
3971;SDS011;2000;47.572;14.202;2022-12-18T16:10:59;19.77;;;5.70;;
3971;SDS011;2000;47.572;14.202;2022-12-18T16:13:26;8.33;;;4.30;;
3971;SDS011;2000;47.572;14.202;2022-12-18T16:15:53;9.17;;;5.10;;
3971;SDS011;2000;47.572;14.202;2022-12-18T16:18:20;13.20;;;5.57;;
3971;SDS011;2000;47.572;14.202;2022-12-18T16:20:47;9.07;;;4.63;;
3971;SDS011;2000;47.572;14.202;2022-12-18T16:23:14;9.07;;;4.47;;
3971;SDS011;2000;47.572;14.202;2022-12-18T16:25:41;9.43;;;3.77;;
3971;SDS011;2000;47.572;14.202;2022-12-18T16:28:08;10.47;;;4.90;;
3971;SDS011;2000;47.572;14.202;2022-12-18T16:30:35;13.77;;;4.80;;
3971;SDS011;2000;47.572;14.202;2022-12-18T16:33:04;4.43;;;3.80;;
3971;SDS011;2000;47.572;14.202;2022-12-18T16:35:33;5.40;;;4.30;;
3971;SDS011;2000;47.572;14.202;2022-12-18T16:38:03;6.87;;;5.07;;
3971;SDS011;2000;47.572;14.202;2022-12-18T16:40:31;10.33;;;5.30;;
3971;SDS011;2000;47.572;14.202;2022-12-18T16:42:58;10.00;;;5.60;;
3971;SDS011;2000;47.572;14.202;2022-12-18T16:45:25;9.90;;;5.80;;
3971;SDS011;2000;47.572;14.202;2022-12-18T16:47:52;10.87;;;4.97;;
3971;SDS011;2000;47.572;14.202;2022-12-18T16:50:19;9.90;;;5.60;;
3971;SDS011;2000;47.572;14.202;2022-12-18T16:52:46;8.00;;;5.00;;
3971;SDS011;2000;47.572;14.202;2022-12-18T16:55:14;8.60;;;5.30;;
3971;SDS011;2000;47.572;14.202;2022-12-18T16:57:41;20.40;;;5.03;;
3971;SDS011;2000;47.572;14.202;2022-12-18T17:00:10;10.33;;;5.80;;
3971;SDS011;2000;47.572;14.202;2022-12-18T17:02:37;10.03;;;5.30;;
3971;SDS011;2000;47.572;14.202;2022-12-18T17:05:05;11.80;;;6.50;;
3971;SDS011;2000;47.572;14.202;2022-12-18T17:07:32;11.30;;;5.37;;
3971;SDS011;2000;47.572;14.202;2022-12-18T17:10:00;12.17;;;6.07;;
3971;SDS011;2000;47.572;14.202;2022-12-18T17:12:27;11.53;;;5.90;;
3971;SDS011;2000;47.572;14.202;2022-12-18T17:14:56;13.30;;;5.50;;
3971;SDS011;2000;47.572;14.202;2022-12-18T17:17:24;9.80;;;5.13;;
3971;SDS011;2000;47.572;14.202;2022-12-18T17:19:51;7.20;;;4.40;;
3971;SDS011;2000;47.572;14.202;2022-12-18T17:22:23;13.30;;;4.63;;
3971;SDS011;2000;47.572;14.202;2022-12-18T17:24:54;5.80;;;3.60;;
3971;SDS011;2000;47.572;14.202;2022-12-18T17:27:21;9.70;;;4.60;;
3971;SDS011;2000;47.572;14.202;2022-12-18T17:29:50;9.37;;;3.97;;
3971;SDS011;2000;47.572;14.202;2022-12-18T17:32:17;10.37;;;3.90;;
3971;SDS011;2000;47.572;14.202;2022-12-18T17:34:44;12.13;;;5.13;;